Time;durP1;ratioP1;P1;durP2;ratioP2;P2;SDS_P1;SDS_P2;PMS_P1;PMS_P2;Temp;Humidity;BMP_temperature;BMP_pressure;BME280_temperature;BME280_humidity;BME280_pressure;Samples;Min_cycle;Max_cycle;Signal;HPM_P1;HPM_P2
2023/02/26 00:00:22;;;;;;;1.63;0.80;;;25.60;60.90;;;;;;5141804;23;20016;-46
2023/02/26 00:02:47;;;;;;;1.30;0.50;;;25.60;60.20;;;;;;5138642;23;20012;-45
2023/02/26 00:05:10;;;;;;;0.85;0.30;;;25.60;60.20;;;;;;5141855;23;20020;-46
2023/02/26 00:07:32;;;;;;;1.30;0.45;;;25.60;60.10;;;;;;5136618;23;20044;-46
2023/02/26 00:09:55;;;;;;;0.57;0.40;;;25.60;60.20;;;;;;5146786;23;20350;-45
2023/02/26 00:12:18;;;;;;;1.58;0.50;;;25.60;60.10;;;;;;5145356;23;20370;-43
2023/02/26 00:14:40;;;;;;;0.95;0.50;;;25.60;60.10;;;;;;5147276;23;20013;-43
2023/02/26 00:17:26;;;;;;;0.30;0.30;;;25.60;60.10;;;;;;5141210;23;20213;-44
2023/02/26 00:19:49;;;;;;;0.60;0.50;;;25.60;60.10;;;;;;5130440;23;20048;-43
2023/02/26 00:22:11;;;;;;;0.80;0.35;;;25.70;60.10;;;;;;5140374;23;20012;-44
2023/02/26 00:24:33;;;;;;;0.50;0.43;;;25.70;60.10;;;;;;5139785;23;20099;-45
2023/02/26 00:26:56;;;;;;;0.70;0.40;;;25.70;60.10;;;;;;5140846;23;20013;-43
2023/02/26 00:29:19;;;;;;;0.80;0.32;;;25.70;60.00;;;;;;5139878;23;20027;-44
2023/02/26 00:31:41;;;;;;;1.42;0.43;;;25.70;60.00;;;;;;5139972;23;20024;-44
2023/02/26 00:34:04;;;;;;;2.03;0.40;;;25.70;60.00;;;;;;5140425;23;20221;-44
2023/02/26 00:36:42;;;;;;;0.65;0.50;;;25.70;60.00;;;;;;5140036;23;20263;-45
2023/02/26 00:39:10;;;;;;;0.38;0.30;;;25.70;59.90;;;;;;5139386;23;20393;-43
2023/02/26 00:41:35;;;;;;;1.98;0.60;;;25.70;59.90;;;;;;5140495;23;20021;-44
2023/02/26 00:43:57;;;;;;;0.30;0.28;;;25.70;59.80;;;;;;5139821;23;20017;-46
2023/02/26 00:46:43;;;;;;;0.65;0.40;;;25.70;59.90;;;;;;5146696;23;20012;-43
2023/02/26 00:49:41;;;;;;;0.50;0.40;;;25.80;59.90;;;;;;5132564;23;20017;-50
2023/02/26 00:52:09;;;;;;;0.77;0.40;;;25.80;59.90;;;;;;5138767;23;20028;-47
2023/02/26 00:54:32;;;;;;;0.73;0.50;;;25.80;59.80;;;;;;5145889;23;20099;-46
2023/02/26 00:56:56;;;;;;;1.27;0.43;;;25.80;59.80;;;;;;5146601;23;20017;-49
2023/02/26 00:59:20;;;;;;;0.47;0.40;;;25.80;60.50;;;;;;5146391;23;20008;-47
2023/02/26 01:01:43;;;;;;;0.30;0.30;;;25.80;59.70;;;;;;5145190;23;20410;-43
2023/02/26 01:04:06;;;;;;;0.38;0.38;;;25.80;59.70;;;;;;5144175;23;20090;-48
2023/02/26 01:06:32;;;;;;;0.70;0.40;;;25.90;59.70;;;;;;5146802;23;20048;-46
2023/02/26 01:09:18;;;;;;;0.80;0.30;;;25.90;59.70;;;;;;5145819;23;20267;-46
2023/02/26 01:11:42;;;;;;;0.40;0.40;;;25.90;59.70;;;;;;5137222;23;20020;-46
2023/02/26 01:14:05;;;;;;;0.30;0.30;;;25.90;59.60;;;;;;5147089;23;20013;-48
2023/02/26 01:16:33;;;;;;;0.65;0.38;;;26.00;59.60;;;;;;5144900;23;20082;-44
2023/02/26 01:19:39;;;;;;;1.40;0.40;;;26.00;59.60;;;;;;5143762;23;20012;-46
2023/02/26 01:22:14;;;;;;;0.25;0.20;;;26.00;59.50;;;;;;5143391;23;20355;-45
2023/02/26 01:24:37;;;;;;;0.30;0.30;;;26.00;59.40;;;;;;5145225;23;20012;-47
2023/02/26 01:27:00;;;;;;;0.35;0.30;;;26.10;59.40;;;;;;5144623;23;20103;-45
2023/02/26 01:29:23;;;;;;;0.47;0.43;;;26.10;59.30;;;;;;5144963;23;20019;-44
2023/02/26 01:31:58;;;;;;;1.02;0.50;;;26.10;59.30;;;;;;5143969;23;20024;-46
2023/02/26 01:34:35;;;;;;;0.30;0.30;;;26.10;59.20;;;;;;5144915;23;20017;-49
2023/02/26 01:37:25;;;;;;;1.75;0.40;;;26.10;59.20;;;;;;5144174;23;20418;-50
2023/02/26 01:40:07;;;;;;;0.73;0.50;;;26.20;59.30;;;;;;5145858;23;20060;-46
2023/02/26 01:42:34;;;;;;;0.40;0.40;;;26.20;59.20;;;;;;5145501;23;20099;-46
2023/02/26 01:45:10;;;;;;;0.45;0.40;;;26.20;59.10;;;;;;5147262;23;20485;-48
2023/02/26 01:47:56;;;;;;;0.32;0.32;;;26.30;59.10;;;;;;5145678;23;20019;-43
2023/02/26 01:50:24;;;;;;;0.60;0.43;;;26.30;59.00;;;;;;5146573;23;20430;-46
2023/02/26 01:52:49;;;;;;;0.45;0.35;;;26.30;59.00;;;;;;5146153;23;20024;-45
2023/02/26 01:55:16;;;;;;;0.32;0.32;;;26.30;58.90;;;;;;5147413;23;20107;-46
2023/02/26 01:57:39;;;;;;;0.40;0.40;;;26.40;58.90;;;;;;5147186;23;20026;-46
2023/02/26 02:00:01;;;;;;;0.30;0.30;;;26.40;58.80;;;;;;5148331;23;20008;-45
2023/02/26 02:02:24;;;;;;;1.45;0.60;;;26.50;58.70;;;;;;5146012;23;20394;-44
2023/02/26 02:04:48;;;;;;;0.52;0.35;;;26.50;58.70;;;;;;5148724;23;20004;-46
2023/02/26 02:07:10;;;;;;;0.45;0.40;;;26.50;58.70;;;;;;5146791;23;20012;-44
2023/02/26 02:09:33;;;;;;;0.40;0.40;;;26.60;58.70;;;;;;5146451;23;20017;-45
2023/02/26 02:12:13;;;;;;;0.50;0.50;;;26.60;58.70;;;;;;5147580;23;20031;-48
2023/02/26 02:15:12;;;;;;;0.43;0.40;;;26.60;58.60;;;;;;5146658;23;20043;-46
2023/02/26 02:18:03;;;;;;;0.68;0.40;;;26.70;58.50;;;;;;5144371;23;20577;-45
2023/02/26 02:20:43;;;;;;;1.10;0.40;;;26.70;59.00;;;;;;5136371;23;20063;-49
2023/02/26 02:23:10;;;;;;;0.82;0.40;;;26.70;58.30;;;;;;5147020;23;20043;-45
2023/02/26 02:25:32;;;;;;;1.27;0.35;;;26.70;58.30;;;;;;5149203;23;20035;-45
2023/02/26 02:28:03;;;;;;;0.50;0.30;;;26.70;58.10;;;;;;5146095;23;20075;-47
2023/02/26 02:31:05;;;;;;;0.75;0.30;;;26.80;58.20;;;;;;5147540;23;20041;-44
2023/02/26 02:33:50;;;;;;;0.65;0.60;;;26.90;58.20;;;;;;5136299;23;20020;-46
2023/02/26 02:36:18;;;;;;;;;;;26.90;58.20;;;;;;5146637;23;20016;-46
2023/02/26 02:39:04;;;;;;;0.55;0.40;;;26.90;58.10;;;;;;5146353;23;19982;-50
2023/02/26 02:41:50;;;;;;;0.70;0.38;;;26.90;58.00;;;;;;5146259;23;20172;-44
2023/02/26 02:44:18;;;;;;;0.40;0.30;;;27.00;58.00;;;;;;5146692;23;20047;-46
2023/02/26 02:46:43;;;;;;;0.45;0.22;;;27.00;57.90;;;;;;5137190;23;20016;-45
2023/02/26 02:49:12;;;;;;;0.55;0.55;;;27.00;57.80;;;;;;5145548;23;20040;-45
2023/02/26 02:51:39;;;;;;;0.85;0.32;;;27.10;57.80;;;;;;5146159;23;20032;-44
2023/02/26 02:54:15;;;;;;;0.55;0.40;;;27.10;57.70;;;;;;5134278;23;20040;-45
2023/02/26 02:56:50;;;;;;;0.50;0.40;;;27.10;57.60;;;;;;5146874;23;20024;-44
2023/02/26 02:59:18;;;;;;;0.98;0.50;;;27.20;57.60;;;;;;5147529;23;20009;-48
2023/02/26 03:01:43;;;;;;;0.75;0.50;;;27.20;57.50;;;;;;5146171;23;20095;-45
2023/02/26 03:04:10;;;;;;;0.30;0.30;;;27.20;57.40;;;;;;5138346;23;20012;-44
2023/02/26 03:06:33;;;;;;;0.32;0.32;;;27.20;57.30;;;;;;5148793;22;20017;-47
2023/02/26 03:08:55;;;;;;;0.40;0.40;;;27.30;57.30;;;;;;5143859;23;20008;-45
2023/02/26 03:11:18;;;;;;;1.17;0.82;;;27.30;57.30;;;;;;5147429;23;20679;-45
2023/02/26 03:13:41;;;;;;;0.57;0.30;;;27.30;57.20;;;;;;5146465;23;20051;-45
2023/02/26 03:16:06;;;;;;;0.73;0.35;;;27.40;57.10;;;;;;5146229;23;20090;-44
2023/02/26 03:18:55;;;;;;;0.43;0.32;;;27.40;57.10;;;;;;5138089;23;20016;-45
2023/02/26 03:21:24;;;;;;;0.38;0.22;;;27.40;57.10;;;;;;5138256;23;20347;-45
2023/02/26 03:23:55;;;;;;;0.30;0.30;;;27.50;57.00;;;;;;5145911;23;20620;-44
2023/02/26 03:26:33;;;;;;;0.73;0.35;;;27.50;56.90;;;;;;5137392;23;20074;-45
2023/02/26 03:29:09;;;;;;;0.50;0.50;;;27.50;56.80;;;;;;5144974;23;20036;-47
2023/02/26 03:31:52;;;;;;;0.93;0.40;;;27.60;56.60;;;;;;5147233;23;20082;-48
2023/02/26 03:34:34;;;;;;;0.47;0.38;;;27.60;56.60;;;;;;5145129;23;20436;-45
2023/02/26 03:37:13;;;;;;;0.52;0.32;;;27.60;56.50;;;;;;5147829;23;20110;-48
2023/02/26 03:39:45;;;;;;;0.93;0.38;;;27.70;56.50;;;;;;5146716;23;20100;-43
2023/02/26 03:42:14;;;;;;;0.30;0.30;;;27.70;56.60;;;;;;5147498;23;20012;-44
2023/02/26 03:44:46;;;;;;;0.82;0.50;;;27.80;56.60;;;;;;5147683;23;20020;-45
2023/02/26 03:47:12;;;;;;;0.75;0.52;;;27.80;56.60;;;;;;5145854;23;20092;-45
2023/02/26 03:49:45;;;;;;;1.77;0.70;;;27.80;56.60;;;;;;5145911;23;20504;-46
2023/02/26 03:52:08;;;;;;;0.88;0.40;;;27.90;56.60;;;;;;5134613;23;20028;-45
2023/02/26 03:54:42;;;;;;;0.50;0.50;;;27.90;56.50;;;;;;5145414;23;20019;-46
2023/02/26 03:57:04;;;;;;;2.70;0.50;;;28.00;57.10;;;;;;5146615;23;20023;-45
2023/02/26 03:59:27;;;;;;;0.60;0.60;;;28.00;56.40;;;;;;5147326;23;20110;-45
2023/02/26 04:02:15;;;;;;;0.77;0.60;;;28.10;56.40;;;;;;5145140;23;20012;-46
2023/02/26 04:05:04;;;;;;;1.00;0.57;;;28.20;56.30;;;;;;5146266;23;20020;-45
2023/02/26 04:07:28;;;;;;;0.45;0.45;;;28.20;56.20;;;;;;5145705;23;20093;-45
2023/02/26 04:09:52;;;;;;;1.00;0.55;;;28.40;56.00;;;;;;5144957;23;20095;-44
2023/02/26 04:12:15;;;;;;;0.93;0.57;;;28.40;55.70;;;;;;5146615;23;20024;-44
2023/02/26 04:14:37;;;;;;;0.30;0.30;;;28.50;55.80;;;;;;5142823;23;20451;-45
2023/02/26 04:17:00;;;;;;;1.25;0.50;;;28.50;56.00;;;;;;5146856;23;20090;-47
2023/02/26 04:19:22;;;;;;;1.17;0.47;;;28.50;56.00;;;;;;5146393;23;20351;-45
2023/02/26 04:21:48;;;;;;;0.50;0.50;;;28.60;56.10;;;;;;5145786;23;20470;-50
2023/02/26 04:24:10;;;;;;;0.98;0.57;;;28.70;56.10;;;;;;5147251;23;20015;-45
2023/02/26 04:26:33;;;;;;;0.90;0.50;;;28.70;56.00;;;;;;5147000;23;20024;-45
2023/02/26 04:28:55;;;;;;;1.88;0.80;;;28.80;56.00;;;;;;5144074;23;20016;-44
2023/02/26 04:31:18;;;;;;;0.88;0.50;;;28.80;56.00;;;;;;5145463;23;20382;-45
2023/02/26 04:33:40;;;;;;;1.67;0.68;;;28.90;56.20;;;;;;5146593;23;20497;-44
2023/02/26 04:36:03;;;;;;;0.65;0.40;;;28.90;56.00;;;;;;5146753;23;20017;-48
2023/02/26 04:38:26;;;;;;;2.17;1.02;;;29.00;55.90;;;;;;5140002;23;20013;-46
2023/02/26 04:40:49;;;;;;;2.05;0.70;;;29.10;56.00;;;;;;5140537;23;20073;-49
2023/02/26 04:43:12;;;;;;;1.17;0.60;;;29.30;56.00;;;;;;5142018;23;20047;-48
2023/02/26 04:45:34;;;;;;;1.35;0.70;;;29.30;55.90;;;;;;5140128;23;20067;-45
2023/02/26 04:47:56;;;;;;;0.93;0.80;;;29.40;55.80;;;;;;5131749;23;20091;-47
2023/02/26 04:50:19;;;;;;;2.33;0.63;;;29.50;55.60;;;;;;5139408;23;20016;-48
2023/02/26 04:52:41;;;;;;;1.70;0.65;;;29.60;55.50;;;;;;5136447;23;20906;-46
2023/02/26 04:55:07;;;;;;;1.65;0.90;;;29.70;55.50;;;;;;5138450;23;20017;-47
2023/02/26 04:57:29;;;;;;;1.65;0.80;;;29.80;55.30;;;;;;5141923;23;20013;-47
2023/02/26 04:59:52;;;;;;;0.98;0.70;;;30.00;55.30;;;;;;5141431;23;20054;-50
2023/02/26 05:02:14;;;;;;;1.85;1.13;;;30.00;55.10;;;;;;5139893;23;20024;-46
2023/02/26 05:04:37;;;;;;;0.88;0.70;;;30.10;55.10;;;;;;5140247;23;20386;-51
2023/02/26 05:06:59;;;;;;;1.08;0.70;;;30.20;55.10;;;;;;5141697;23;20039;-49
2023/02/26 05:09:21;;;;;;;1.75;0.68;;;30.20;54.90;;;;;;5140255;23;20016;-46
2023/02/26 05:11:44;;;;;;;1.05;0.75;;;30.30;54.80;;;;;;5141999;23;20402;-47
2023/02/26 05:14:06;;;;;;;1.70;0.85;;;30.40;54.70;;;;;;5140693;23;20023;-49
2023/02/26 05:16:29;;;;;;;1.23;0.57;;;30.50;54.40;;;;;;5141516;23;20107;-53
2023/02/26 05:18:51;;;;;;;1.25;0.50;;;30.60;54.30;;;;;;5141422;23;20016;-49
2023/02/26 05:21:14;;;;;;;2.78;0.70;;;30.70;54.20;;;;;;5140570;23;20078;-47
2023/02/26 05:23:36;;;;;;;1.63;0.70;;;30.80;54.10;;;;;;5141569;23;20095;-51
2023/02/26 05:25:59;;;;;;;1.67;0.80;;;30.90;54.00;;;;;;5140737;23;20487;-47
2023/02/26 05:28:22;;;;;;;1.93;0.73;;;31.00;53.80;;;;;;5140323;23;20012;-50
2023/02/26 05:30:44;;;;;;;0.98;0.80;;;31.10;53.70;;;;;;5140108;23;20250;-48
2023/02/26 05:33:06;;;;;;;1.23;0.70;;;31.20;53.60;;;;;;5139403;23;20096;-47
2023/02/26 05:35:29;;;;;;;1.97;0.97;;;31.30;53.50;;;;;;5141340;23;20012;-49
2023/02/26 05:37:51;;;;;;;1.88;0.82;;;31.30;53.30;;;;;;5140157;23;20096;-47
2023/02/26 05:40:14;;;;;;;1.92;1.00;;;31.40;53.30;;;;;;5141111;23;20450;-51
2023/02/26 05:42:37;;;;;;;1.95;0.70;;;31.60;53.10;;;;;;5142299;23;20366;-47
2023/02/26 05:45:00;;;;;;;0.85;0.68;;;31.60;52.90;;;;;;5130209;23;20012;-50
2023/02/26 05:47:22;;;;;;;2.45;1.08;;;31.70;52.70;;;;;;5143931;23;20379;-52
2023/02/26 05:49:45;;;;;;;2.33;1.10;;;31.80;52.70;;;;;;5141540;23;20012;-45
2023/02/26 05:52:07;;;;;;;2.03;0.75;;;31.90;52.50;;;;;;5143250;23;20056;-51
2023/02/26 05:54:30;;;;;;;1.08;0.60;;;32.00;52.40;;;;;;5145869;23;20346;-51
2023/02/26 05:56:52;;;;;;;1.73;0.65;;;32.10;52.40;;;;;;5145645;23;20020;-50
2023/02/26 05:59:15;;;;;;;1.42;0.77;;;32.20;52.20;;;;;;5145689;23;20016;-51
2023/02/26 06:01:37;;;;;;;1.30;0.70;;;32.20;52.10;;;;;;5143446;23;20533;-49
2023/02/26 06:04:00;;;;;;;1.02;0.52;;;32.30;51.90;;;;;;5143621;23;20016;-51
2023/02/26 06:06:24;;;;;;;3.35;1.10;;;32.40;51.80;;;;;;5137067;23;20009;-49
2023/02/26 06:08:47;;;;;;;2.78;1.05;;;32.50;51.70;;;;;;5143567;23;20481;-51
2023/02/26 06:11:09;;;;;;;2.17;0.80;;;32.60;51.60;;;;;;5145128;23;20083;-51
2023/02/26 06:13:31;;;;;;;2.20;0.80;;;32.60;51.50;;;;;;5144932;23;20016;-50
2023/02/26 06:15:54;;;;;;;1.70;0.70;;;32.60;51.50;;;;;;5145363;23;20020;-49
2023/02/26 06:18:16;;;;;;;1.85;0.70;;;32.60;51.70;;;;;;5144484;23;20013;-51
2023/02/26 06:20:39;;;;;;;1.67;0.93;;;32.50;51.90;;;;;;5135848;23;20367;-48
2023/02/26 06:23:01;;;;;;;2.22;0.75;;;32.40;52.00;;;;;;5144878;23;20020;-52
2023/02/26 06:25:23;;;;;;;2.75;0.70;;;32.30;52.20;;;;;;5144388;23;20016;-49
2023/02/26 06:27:46;;;;;;;1.70;0.90;;;32.20;52.30;;;;;;5144723;23;20016;-50
2023/02/26 06:30:09;;;;;;;2.35;0.90;;;32.20;52.50;;;;;;5137294;23;20012;-53
2023/02/26 06:32:31;;;;;;;1.10;0.75;;;32.10;52.60;;;;;;5136372;23;20036;-48
2023/02/26 06:34:54;;;;;;;2.22;0.90;;;32.10;52.80;;;;;;5145790;23;20051;-51
2023/02/26 06:37:16;;;;;;;0.60;0.60;;;32.00;53.00;;;;;;5144728;23;20175;-48
2023/02/26 06:39:38;;;;;;;1.20;0.70;;;32.00;53.10;;;;;;5145590;23;20008;-48
2023/02/26 06:42:01;;;;;;;1.02;0.70;;;31.90;53.20;;;;;;5146891;23;20090;-45
2023/02/26 06:44:23;;;;;;;0.60;0.40;;;31.90;53.30;;;;;;5145364;23;20016;-47
2023/02/26 06:46:46;;;;;;;1.00;0.63;;;31.90;53.50;;;;;;5148072;23;20017;-47
2023/02/26 06:49:11;;;;;;;1.80;0.88;;;32.00;53.50;;;;;;5144625;23;20522;-47
2023/02/26 06:51:34;;;;;;;1.60;0.70;;;32.10;53.50;;;;;;5147165;23;20025;-48
2023/02/26 06:53:57;;;;;;;1.42;0.70;;;32.10;52.50;;;;;;5146791;23;20023;-48
2023/02/26 06:56:19;;;;;;;1.87;0.90;;;32.00;51.30;;;;;;5147733;23;20028;-47
2023/02/26 06:58:41;;;;;;;1.00;0.80;;;31.80;51.00;;;;;;5146938;23;20016;-48
2023/02/26 07:01:04;;;;;;;1.52;1.08;;;31.50;51.10;;;;;;5147856;23;20166;-47
2023/02/26 07:03:27;;;;;;;2.00;1.20;;;31.30;50.40;;;;;;5147211;23;20017;-46
2023/02/26 07:05:49;;;;;;;1.70;1.10;;;31.10;51.00;;;;;;5136980;23;20028;-46
2023/02/26 07:08:12;;;;;;;2.03;1.23;;;30.90;51.00;;;;;;5138300;23;20087;-50
2023/02/26 07:10:36;;;;;;;2.08;1.33;;;30.70;50.60;;;;;;5139399;23;20071;-44
2023/02/26 07:12:58;;;;;;;2.17;1.33;;;30.60;50.60;;;;;;5147004;23;20016;-47
2023/02/26 07:15:21;;;;;;;1.40;1.20;;;30.40;50.80;;;;;;5146640;23;20008;-45
2023/02/26 07:17:44;;;;;;;1.73;1.15;;;30.30;51.00;;;;;;5146881;23;20359;-45
2023/02/26 07:20:09;;;;;;;2.08;1.30;;;30.10;51.10;;;;;;5141448;23;20512;-47
2023/02/26 07:22:32;;;;;;;2.85;1.20;;;29.90;51.40;;;;;;5146107;23;20075;-44
2023/02/26 07:24:54;;;;;;;2.70;1.33;;;29.80;51.30;;;;;;5143664;23;20407;-47
2023/02/26 07:27:17;;;;;;;1.95;0.93;;;29.60;51.20;;;;;;5146778;23;20286;-47
2023/02/26 07:29:40;;;;;;;1.40;1.20;;;29.50;51.50;;;;;;5133501;23;20091;-46
2023/02/26 07:32:03;;;;;;;1.88;1.17;;;29.30;51.50;;;;;;5145386;23;20032;-43
2023/02/26 07:34:25;;;;;;;1.33;1.15;;;29.20;51.40;;;;;;5145505;23;20419;-45
2023/02/26 07:36:48;;;;;;;1.92;1.05;;;29.00;51.20;;;;;;5144655;23;20082;-47
2023/02/26 07:39:11;;;;;;;10.20;1.17;;;28.80;51.10;;;;;;5145556;23;20083;-46
2023/02/26 07:41:33;;;;;;;2.35;1.55;;;28.70;51.10;;;;;;5147746;23;20021;-45
2023/02/26 07:43:56;;;;;;;2.35;1.33;;;28.50;51.40;;;;;;5145121;23;20184;-46
2023/02/26 07:46:18;;;;;;;1.92;1.48;;;28.40;51.30;;;;;;5147784;23;20020;-43
2023/02/26 07:48:40;;;;;;;2.03;1.45;;;28.30;50.90;;;;;;5146455;23;20017;-47
2023/02/26 07:51:03;;;;;;;2.42;1.80;;;28.10;51.60;;;;;;5145863;23;20028;-46
2023/02/26 07:53:26;;;;;;;2.42;1.30;;;28.00;51.90;;;;;;5146519;23;20013;-47
2023/02/26 07:55:48;;;;;;;2.42;1.13;;;27.90;51.60;;;;;;5145127;23;20047;-43
2023/02/26 07:58:11;;;;;;;2.78;1.38;;;27.80;52.00;;;;;;5144535;23;20023;-45
2023/02/26 08:00:33;;;;;;;1.92;1.40;;;27.60;51.80;;;;;;5146665;23;20118;-45
2023/02/26 08:02:55;;;;;;;1.60;1.20;;;27.50;52.30;;;;;;5145585;23;20023;-44
2023/02/26 08:05:18;;;;;;;1.42;1.10;;;27.40;52.40;;;;;;5147038;23;20332;-47
2023/02/26 08:07:40;;;;;;;2.22;1.25;;;27.30;52.50;;;;;;5145191;23;20044;-45
2023/02/26 08:10:03;;;;;;;2.67;1.45;;;27.10;51.90;;;;;;5146934;23;20095;-44
2023/02/26 08:12:26;;;;;;;2.65;1.25;;;27.00;52.60;;;;;;5147027;23;20104;-46
2023/02/26 08:14:48;;;;;;;2.58;1.38;;;26.90;52.60;;;;;;5146163;23;20009;-50
2023/02/26 08:17:11;;;;;;;2.50;1.40;;;26.80;52.70;;;;;;5143732;23;20028;-45
2023/02/26 08:19:34;;;;;;;2.33;1.52;;;26.70;52.30;;;;;;5146345;23;20075;-42
2023/02/26 08:21:56;;;;;;;3.42;1.60;;;26.60;53.30;;;;;;5142542;23;20016;-48
2023/02/26 08:24:19;;;;;;;2.58;1.48;;;26.50;53.30;;;;;;5145056;23;20013;-44
2023/02/26 08:26:41;;;;;;;1.75;1.05;;;26.40;52.90;;;;;;5147115;23;20026;-46
2023/02/26 08:29:04;;;;;;;2.28;1.30;;;26.30;52.80;;;;;;5146741;23;20350;-44
2023/02/26 08:31:27;;;;;;;3.30;1.33;;;26.20;52.90;;;;;;5145645;23;20536;-45
2023/02/26 08:33:49;;;;;;;2.45;1.35;;;26.10;53.00;;;;;;5144481;23;20466;-42
2023/02/26 08:36:13;;;;;;;1.65;1.25;;;26.00;53.00;;;;;;5146350;23;20022;-42
2023/02/26 08:38:35;;;;;;;2.58;1.48;;;25.90;52.90;;;;;;5135863;23;20346;-43
2023/02/26 08:40:58;;;;;;;1.95;1.30;;;25.80;53.40;;;;;;5146364;23;20048;-44
2023/02/26 08:43:21;;;;;;;1.52;1.00;;;25.70;53.30;;;;;;5146410;23;20341;-46
2023/02/26 08:45:45;;;;;;;2.28;1.40;;;25.70;53.40;;;;;;5144362;23;20393;-45
2023/02/26 08:48:07;;;;;;;2.25;1.25;;;25.50;53.00;;;;;;5144399;23;20534;-47
2023/02/26 08:50:29;;;;;;;1.95;1.17;;;25.40;53.70;;;;;;5144246;23;20027;-44
2023/02/26 08:52:52;;;;;;;1.58;1.17;;;25.40;53.60;;;;;;5137894;23;20016;-44
2023/02/26 08:55:14;;;;;;;2.25;1.45;;;25.30;53.60;;;;;;5135958;23;20012;-43
2023/02/26 08:57:37;;;;;;;2.80;1.25;;;25.20;53.40;;;;;;5138840;23;20251;-48
2023/02/26 08:59:59;;;;;;;2.28;1.40;;;25.10;53.90;;;;;;5138577;23;20016;-42
2023/02/26 09:02:22;;;;;;;1.85;1.10;;;25.00;53.90;;;;;;5137773;23;20096;-45
2023/02/26 09:04:44;;;;;;;2.40;1.38;;;24.90;54.00;;;;;;5139082;23;20020;-44
2023/02/26 09:07:07;;;;;;;2.55;1.50;;;24.80;53.80;;;;;;5138661;23;20044;-45
2023/02/26 09:09:35;;;;;;;2.05;1.35;;;24.80;53.80;;;;;;5138735;23;20461;-49
2023/02/26 09:11:58;;;;;;;1.65;1.20;;;24.70;54.00;;;;;;5139278;23;20961;-44
2023/02/26 09:14:20;;;;;;;1.38;0.95;;;24.60;54.00;;;;;;5132803;23;20604;-43
2023/02/26 09:16:43;;;;;;;2.35;1.52;;;24.50;53.70;;;;;;5139166;23;20036;-44
2023/02/26 09:19:06;;;;;;;1.85;1.10;;;24.50;54.10;;;;;;5137846;23;20055;-46
2023/02/26 09:21:29;;;;;;;1.70;1.00;;;24.40;53.80;;;;;;5137002;23;20027;-44
2023/02/26 09:23:52;;;;;;;2.17;1.07;;;24.30;54.10;;;;;;5138414;23;20012;-43
2023/02/26 09:26:14;;;;;;;1.65;1.10;;;24.20;54.10;;;;;;5136249;23;20250;-45
2023/02/26 09:28:37;;;;;;;1.73;1.10;;;24.20;54.40;;;;;;5139238;23;20048;-43
2023/02/26 09:30:59;;;;;;;1.92;1.30;;;24.10;54.30;;;;;;5136915;23;20024;-44
2023/02/26 09:33:22;;;;;;;2.10;1.08;;;24.00;54.30;;;;;;5137350;23;20044;-43
2023/02/26 09:35:48;;;;;;;1.52;1.10;;;24.00;54.80;;;;;;5138901;23;20047;-45
2023/02/26 09:38:10;;;;;;;2.53;1.05;;;24.00;55.10;;;;;;5126592;23;20044;-42
2023/02/26 09:40:52;;;;;;;2.35;1.20;;;24.10;55.00;;;;;;5138521;23;20020;-45
2023/02/26 09:43:27;;;;;;;1.60;1.13;;;24.10;55.20;;;;;;5138249;23;20019;-44
2023/02/26 09:45:53;;;;;;;1.95;1.10;;;24.20;55.50;;;;;;5138511;23;20091;-43
2023/02/26 09:48:17;;;;;;;1.67;0.93;;;24.20;55.70;;;;;;5129410;23;20012;-44
2023/02/26 09:50:50;;;;;;;3.10;1.40;;;24.20;55.90;;;;;;5137894;23;20354;-45
2023/02/26 09:53:21;;;;;;;1.85;1.00;;;24.30;56.40;;;;;;5137959;23;20103;-44
2023/02/26 09:55:46;;;;;;;2.58;1.30;;;24.40;56.60;;;;;;5137710;23;20044;-43
2023/02/26 09:58:36;;;;;;;0.88;0.70;;;24.40;56.80;;;;;;5126484;23;20087;-42
2023/02/26 10:01:04;;;;;;;1.95;0.98;;;24.50;57.00;;;;;;5137565;23;20021;-43
2023/02/26 10:03:51;;;;;;;1.83;1.00;;;24.50;57.20;;;;;;5138025;23;20020;-43
2023/02/26 10:06:30;;;;;;;0.95;0.55;;;24.60;57.40;;;;;;5139060;23;20691;-44
2023/02/26 10:09:17;;;;;;;2.83;1.10;;;24.70;57.50;;;;;;5138677;23;20465;-41
2023/02/26 10:11:40;;;;;;;1.50;0.80;;;24.80;57.60;;;;;;5137248;23;20447;-42
2023/02/26 10:14:06;;;;;;;1.10;0.65;;;24.80;57.60;;;;;;5138211;23;20444;-42
2023/02/26 10:16:33;;;;;;;1.23;0.70;;;24.90;57.60;;;;;;5139469;23;20409;-42
2023/02/26 10:19:05;;;;;;;1.48;0.70;;;24.90;57.60;;;;;;5138457;23;20039;-42
2023/02/26 10:21:31;;;;;;;1.25;0.60;;;25.00;57.70;;;;;;5128072;23;20036;-44
2023/02/26 10:24:05;;;;;;;1.60;0.68;;;25.00;57.70;;;;;;5139417;23;20044;-44
2023/02/26 10:27:06;;;;;;;;;;;25.10;57.70;;;;;;5141995;22;20480;-43
2023/02/26 10:29:43;;;;;;;1.40;0.70;;;25.10;57.80;;;;;;5030562;23;19916;-45
2023/02/26 10:32:25;;;;;;;1.70;0.73;;;25.20;57.80;;;;;;5038824;23;20030;-44
2023/02/26 10:34:57;;;;;;;2.20;0.90;;;25.30;57.90;;;;;;5111701;23;20044;-45
2023/02/26 10:37:53;;;;;;;1.55;0.68;;;25.30;57.90;;;;;;5129734;23;20016;-43
2023/02/26 10:40:19;;;;;;;1.20;0.40;;;25.40;57.90;;;;;;5137544;23;20020;-44
2023/02/26 10:42:54;;;;;;;0.45;0.40;;;25.40;57.80;;;;;;5138499;23;20455;-43
2023/02/26 10:45:39;;;;;;;1.67;0.73;;;25.40;57.80;;;;;;5139260;23;20067;-47
2023/02/26 10:48:23;;;;;;;0.63;0.40;;;25.50;57.80;;;;;;5137031;23;20020;-48
2023/02/26 10:50:51;;;;;;;4.67;0.90;;;25.60;58.10;;;;;;5137830;23;20013;-44
2023/02/26 10:53:14;;;;;;;4.95;1.00;;;25.60;59.00;;;;;;5138033;23;20327;-45
2023/02/26 10:55:43;;;;;;;3.95;1.00;;;25.70;59.00;;;;;;5137941;23;20018;-44
2023/02/26 10:58:15;;;;;;;4.50;1.02;;;25.80;59.00;;;;;;5137172;23;20020;-43
2023/02/26 11:00:38;;;;;;;2.22;1.05;;;25.90;59.10;;;;;;5138938;23;20383;-43
2023/02/26 11:03:02;;;;;;;3.63;1.00;;;26.00;59.10;;;;;;5139108;23;20039;-44
2023/02/26 11:05:30;;;;;;;2.88;0.77;;;26.10;59.30;;;;;;5139406;23;20063;-48
2023/02/26 11:08:02;;;;;;;2.53;0.95;;;26.10;59.30;;;;;;5137986;23;20020;-47
2023/02/26 11:10:30;;;;;;;7.78;1.23;;;26.20;59.70;;;;;;5130465;23;20335;-48
2023/02/26 11:12:53;;;;;;;3.72;1.02;;;26.20;59.90;;;;;;5136058;23;20542;-46
2023/02/26 11:15:21;;;;;;;1.92;0.80;;;26.10;60.00;;;;;;5136575;23;20012;-45
2023/02/26 11:17:47;;;;;;;4.43;0.80;;;26.10;60.10;;;;;;5127352;23;20020;-50
2023/02/26 11:20:25;;;;;;;5.55;0.95;;;26.10;60.30;;;;;;5136369;23;20023;-46
2023/02/26 11:22:52;;;;;;;2.13;0.80;;;26.10;60.40;;;;;;5137678;23;20070;-49
2023/02/26 11:25:18;;;;;;;11.55;1.40;;;26.10;60.50;;;;;;5138118;23;20016;-47
2023/02/26 11:27:46;;;;;;;4.80;1.15;;;26.20;60.50;;;;;;5127653;23;20103;-47
2023/02/26 11:30:17;;;;;;;4.13;1.40;;;26.20;60.50;;;;;;5129861;23;20019;-45
2023/02/26 11:32:44;;;;;;;2.33;0.85;;;26.20;60.50;;;;;;5135898;23;20454;-48
2023/02/26 11:35:13;;;;;;;2.40;0.70;;;26.30;60.50;;;;;;5137067;23;20512;-52
2023/02/26 11:37:39;;;;;;;6.25;1.10;;;26.30;60.60;;;;;;5137643;23;20051;-51
2023/02/26 11:40:34;;;;;;;2.10;0.63;;;26.40;60.60;;;;;;5137787;23;20012;-48
2023/02/26 11:43:03;;;;;;;2.75;0.77;;;26.40;60.50;;;;;;5141557;23;20055;-45
2023/02/26 11:45:25;;;;;;;2.72;0.70;;;26.50;60.50;;;;;;5143682;23;20344;-43
2023/02/26 11:48:03;;;;;;;2.15;1.10;;;26.50;60.50;;;;;;5144674;23;20052;-44
2023/02/26 11:50:27;;;;;;;4.53;1.00;;;26.50;60.50;;;;;;5133400;23;20016;-45
2023/02/26 11:52:57;;;;;;;3.65;1.08;;;26.50;61.40;;;;;;5142442;23;20027;-47
2023/02/26 11:55:21;;;;;;;6.60;1.20;;;26.50;61.70;;;;;;5143669;23;20012;-42
2023/02/26 11:57:44;;;;;;;7.75;1.38;;;26.60;61.90;;;;;;5132436;23;20784;-51
2023/02/26 12:00:20;;;;;;;5.53;1.00;;;26.60;62.10;;;;;;5143076;23;20060;-47
2023/02/26 12:02:42;;;;;;;3.92;0.90;;;26.60;61.90;;;;;;5141903;23;20024;-47
2023/02/26 12:05:06;;;;;;;2.63;1.10;;;26.70;61.90;;;;;;5143418;23;20138;-49
2023/02/26 12:07:33;;;;;;;;;;;26.80;61.90;;;;;;5144078;23;20356;-45
2023/02/26 12:09:56;;;;;;;6.00;1.08;;;26.80;61.80;;;;;;5143920;23;20288;-51
2023/02/26 12:12:35;;;;;;;1.73;0.57;;;26.80;61.90;;;;;;5135194;23;20033;-44
2023/02/26 12:15:16;;;;;;;3.22;1.00;;;26.80;61.80;;;;;;5141599;23;20135;-49
2023/02/26 12:18:10;;;;;;;3.00;1.05;;;26.90;61.80;;;;;;5143476;23;20048;-46
2023/02/26 12:20:42;;;;;;;3.80;0.82;;;26.90;61.80;;;;;;5145228;23;20062;-44
2023/02/26 12:23:24;;;;;;;2.90;0.90;;;26.90;61.80;;;;;;5143947;23;20016;-50
2023/02/26 12:26:11;;;;;;;1.85;0.75;;;26.90;61.70;;;;;;5137588;23;20067;-48
2023/02/26 12:29:07;;;;;;;4.10;1.13;;;27.00;61.90;;;;;;5142814;23;20346;-46
2023/02/26 12:31:43;;;;;;;3.60;1.10;;;27.00;61.80;;;;;;5137131;23;20024;-43
2023/02/26 12:34:40;;;;;;;3.55;1.10;;;27.00;61.80;;;;;;5143082;23;20324;-45
2023/02/26 12:37:18;;;;;;;1.40;0.80;;;27.00;61.70;;;;;;5145096;23;20159;-45
2023/02/26 12:40:10;;;;;;;3.85;1.05;;;27.10;62.00;;;;;;5144803;23;20021;-46
2023/02/26 12:43:00;;;;;;;5.13;1.15;;;27.10;62.00;;;;;;5145556;23;20504;-45
2023/02/26 12:45:41;;;;;;;14.57;2.05;;;27.10;62.10;;;;;;5144958;23;20015;-45
2023/02/26 12:48:28;;;;;;;5.05;1.08;;;27.10;62.40;;;;;;5133252;23;20074;-45
2023/02/26 12:51:34;;;;;;;3.65;1.23;;;27.20;62.40;;;;;;5144486;23;20038;-44